Livonia, New York
Current Conditions -  °F | °C
As of 2:54 PM on Monday 24 Nov 2014 (Local Time) from KDSV Reporting Station
Few Clouds Few Clouds  
Wind Chill: 64°   Ceiling: Unl
Heat Index: 64°   Visibility: 10mi
Dew Point: 52°   Wind: 12mph
Humidity: 65%   Direction: 150°SSE
Pressure: 29.34"   Gusts: NA
Location:  42.82°N, 77.67°W
Report Text: KDSV 241954Z AUTO 15010KT 10SM FEW110 18/11 A2934 RMK AO2 PK WND 17026/1921 RAB11E37 SLP941 P0001 T01780111
Loading
Personal Weather Stations






























Interactive Weather Map New forecast layout! Learn more

10-Day Weather Forecast

Advertisements
Track Severe Weather on mobile